Time,TemperatureF,DewpointF,PressureIn,WindDirection,WindDirectionDegrees,WindSpeedMPH,WindSpeedGustMPH,Humidity,HourlyPrecipIn,Conditions,Clouds,dailyrainin,SoftwareType,DateUTC
2013-01-01 01:32:00,17.0,14.0,-100.00,West,280,3.0,-999.0,87,-99.99,,,-99.99,,2013-01-01 08:32:00,
2013-01-01 01:42:00,17.0,14.0,-100.00,West,280,3.0,-999.0,87,-99.99,,,-99.99,,2013-01-01 08:42:00,
2013-01-01 01:53:00,17.0,14.0,-100.00,West,280,3.0,-999.0,87,-99.99,,,-99.99,,2013-01-01 08:53:00,
2013-01-01 02:32:00,16.0,14.0,-100.00,SW,230,3.0,-999.0,91,-99.99,,,-99.99,,2013-01-01 09:32:00,
2013-01-01 02:42:00,16.0,14.0,-100.00,SW,230,3.0,-999.0,91,-99.99,,,-99.99,,2013-01-01 09:42:00,
2013-01-01 02:52:00,16.0,14.0,-100.00,SW,230,3.0,-999.0,91,-99.99,,,-99.99,,2013-01-01 09:52:00,
2013-01-01 03:33:00,15.0,13.0,-100.00,SW,230,3.0,-999.0,90,-99.99,,,-99.99,,2013-01-01 10:33:00,
2013-01-01 03:42:00,15.0,13.0,-100.00,SW,230,3.0,-999.0,90,-99.99,,,-99.99,,2013-01-01 10:42:00,
2013-01-01 03:52:00,15.0,13.0,-100.00,SW,230,3.0,-999.0,90,-99.99,,,-99.99,,2013-01-01 10:52:00,
2013-01-01 04:33:00,14.0,13.0,-100.00,SW,220,5.0,-999.0,95,-99.99,,,-99.99,,2013-01-01 11:33:00,
2013-01-01 04:42:00,14.0,13.0,-100.00,SW,220,5.0,-999.0,95,-99.99,,,-99.99,,2013-01-01 11:42:00,
2013-01-01 04:53:00,14.0,13.0,-100.00,SW,220,5.0,-999.0,95,-99.99,,,-99.99,,2013-01-01 11:53:00,
2013-01-01 05:33:00,14.0,13.0,-100.00,SW,220,6.0,-999.0,95,-99.99,,,-99.99,,2013-01-01 12:33:00,
2013-01-01 05:42:00,14.0,13.0,-100.00,SW,220,6.0,-999.0,95,-99.99,,,-99.99,,2013-01-01 12:42:00,
2013-01-01 05:52:00,14.0,13.0,-100.00,SW,220,6.0,-999.0,95,-99.99,,,-99.99,,2013-01-01 12:52:00,
2013-01-01 06:33:00,16.0,15.0,-100.00,SSW,200,6.0,-999.0,96,-99.99,,,-99.99,,2013-01-01 13:33:00,
2013-01-01 06:42:00,16.0,15.0,-100.00,SSW,200,6.0,-999.0,96,-99.99,,,-99.99,,2013-01-01 13:42:00,
2013-01-01 06:52:00,16.0,15.0,-100.00,SSW,200,6.0,-999.0,96,-99.99,,,-99.99,,2013-01-01 13:52:00,
2013-01-01 07:32:00,15.0,13.0,-100.00,SW,230,6.0,-999.0,90,-99.99,,,-99.99,,2013-01-01 14:32:00,
2013-01-01 07:42:00,15.0,13.0,-100.00,SW,230,6.0,-999.0,90,-99.99,,,-99.99,,2013-01-01 14:42:00,
2013-01-01 07:53:00,15.0,13.0,-100.00,SW,230,6.0,-999.0,90,-99.99,,,-99.99,,2013-01-01 14:53:00,
2013-01-01 08:33:00,17.0,16.0,-100.00,SSW,210,9.0,-999.0,95,-99.99,,,-99.99,,2013-01-01 15:33:00,
2013-01-01 08:42:00,17.0,16.0,-100.00,SSW,210,9.0,-999.0,95,-99.99,,,-99.99,,2013-01-01 15:42:00,
2013-01-01 08:53:00,17.0,16.0,-100.00,SSW,210,9.0,-999.0,95,-99.99,,,-99.99,,2013-01-01 15:53:00,
2013-01-01 09:33:00,20.0,18.0,-100.00,SW,230,6.0,-999.0,91,-99.99,,,-99.99,,2013-01-01 16:33:00,
2013-01-01 09:42:00,20.0,18.0,-100.00,SW,230,6.0,-999.0,91,-99.99,,,-99.99,,2013-01-01 16:42:00,
2013-01-01 09:52:00,20.0,18.0,-100.00,SW,230,6.0,-999.0,91,-99.99,,,-99.99,,2013-01-01 16:52:00,
2013-01-01 10:33:00,17.0,13.0,-100.00,NNW,330,3.0,-999.0,83,-99.99,,,-99.99,,2013-01-01 17:33:00,
2013-01-01 10:43:00,17.0,13.0,-100.00,NNW,330,3.0,-999.0,83,-99.99,,,-99.99,,2013-01-01 17:43:00,
2013-01-01 10:52:00,17.0,13.0,-100.00,NNW,330,3.0,-999.0,83,-99.99,,,-99.99,,2013-01-01 17:52:00,
2013-01-01 11:33:00,23.0,21.0,-100.00,SE,130,2.0,-999.0,91,-99.99,,,-99.99,,2013-01-01 18:33:00,
2013-01-01 11:42:00,23.0,21.0,-100.00,SE,130,2.0,-999.0,91,-99.99,,,-99.99,,2013-01-01 18:42:00,
2013-01-01 11:52:00,23.0,21.0,-100.00,SE,130,2.0,-999.0,91,-99.99,,,-99.99,,2013-01-01 18:52:00,
2013-01-01 12:33:00,27.0,25.0,-100.00,West,280,3.0,-999.0,92,-99.99,,,-99.99,,2013-01-01 19:33:00,
2013-01-01 12:42:00,27.0,25.0,-100.00,West,280,3.0,-999.0,92,-99.99,,,-99.99,,2013-01-01 19:42:00,
2013-01-01 12:52:00,27.0,25.0,-100.00,West,280,3.0,-999.0,92,-99.99,,,-99.99,,2013-01-01 19:52:00,
2013-01-01 13:32:00,28.0,27.0,-100.00,WSW,250,6.0,-999.0,95,-99.99,,,-99.99,,2013-01-01 20:32:00,
2013-01-01 13:42:00,28.0,27.0,-100.00,WSW,250,6.0,-999.0,95,-99.99,,,-99.99,,2013-01-01 20:42:00,
2013-01-01 13:52:00,28.0,27.0,-100.00,WSW,250,6.0,-999.0,95,-99.99,,,-99.99,,2013-01-01 20:52:00,
2013-01-01 14:33:00,30.0,29.0,-100.00,WSW,250,7.0,-999.0,95,-99.99,,,-99.99,,2013-01-01 21:33:00,
2013-01-01 14:42:00,30.0,29.0,-100.00,WSW,250,7.0,-999.0,95,-99.99,,,-99.99,,2013-01-01 21:42:00,
2013-01-01 14:52:00,30.0,29.0,-100.00,WSW,250,7.0,-999.0,95,-99.99,,,-99.99,,2013-01-01 21:52:00,
2013-01-01 15:33:00,32.0,30.0,-100.00,WNW,290,17.0,27.0,92,-99.99,,,-99.99,,2013-01-01 22:33:00,
2013-01-01 15:42:00,32.0,30.0,-100.00,WNW,290,17.0,27.0,92,-99.99,,,-99.99,,2013-01-01 22:42:00,
2013-01-01 15:52:00,32.0,30.0,-100.00,WNW,290,17.0,27.0,92,-99.99,,,-99.99,,2013-01-01 22:52:00,
2013-01-01 16:32:00,32.0,29.0,-100.00,WNW,300,13.0,23.0,88,-99.99,,,-99.99,,2013-01-01 23:32:00,
2013-01-01 16:42:00,32.0,29.0,-100.00,WNW,300,13.0,23.0,88,-99.99,,,-99.99,,2013-01-01 23:42:00,
2013-01-01 16:52:00,32.0,29.0,-100.00,WNW,300,13.0,23.0,88,-99.99,,,-99.99,,2013-01-01 23:52:00,
2013-01-01 17:32:00,31.0,28.0,-100.00,WNW,290,13.0,21.0,88,-99.99,,,-99.99,,2013-01-02 00:32:00,
2013-01-01 17:42:00,31.0,28.0,-100.00,WNW,290,13.0,21.0,88,-99.99,,,-99.99,,2013-01-02 00:42:00,
2013-01-01 17:52:00,31.0,28.0,-100.00,WNW,290,13.0,21.0,88,-99.99,,,-99.99,,2013-01-02 00:52:00,
2013-01-01 18:32:00,30.0,27.0,-100.00,West,270,12.0,23.0,88,-99.99,,,-99.99,,2013-01-02 01:32:00,
2013-01-01 18:42:00,30.0,27.0,-100.00,West,270,12.0,23.0,88,-99.99,,,-99.99,,2013-01-02 01:42:00,
2013-01-01 18:52:00,30.0,27.0,-100.00,West,270,12.0,23.0,88,-99.99,,,-99.99,,2013-01-02 01:52:00,
2013-01-01 19:32:00,30.0,26.0,-100.00,West,280,13.0,22.0,84,-99.99,,,-99.99,,2013-01-02 02:32:00,
2013-01-01 19:42:00,30.0,26.0,-100.00,West,280,13.0,22.0,84,-99.99,,,-99.99,,2013-01-02 02:42:00,
2013-01-01 19:52:00,30.0,26.0,-100.00,West,280,13.0,22.0,84,-99.99,,,-99.99,,2013-01-02 02:52:00,
2013-01-01 20:32:00,29.0,24.0,-100.00,West,280,12.0,21.0,81,-99.99,,,-99.99,,2013-01-02 03:32:00,
2013-01-01 20:42:00,29.0,24.0,-100.00,West,280,12.0,21.0,81,-99.99,,,-99.99,,2013-01-02 03:42:00,
2013-01-01 20:52:00,29.0,24.0,-100.00,West,280,12.0,21.0,81,-99.99,,,-99.99,,2013-01-02 03:52:00,
2013-01-01 21:32:00,29.0,22.0,-100.00,WNW,300,10.0,20.0,74,-99.99,,,-99.99,,2013-01-02 04:32:00,
2013-01-01 21:42:00,29.0,22.0,-100.00,WNW,300,10.0,20.0,74,-99.99,,,-99.99,,2013-01-02 04:42:00,
2013-01-01 21:52:00,29.0,22.0,-100.00,WNW,300,10.0,20.0,74,-99.99,,,-99.99,,2013-01-02 04:52:00,
2013-01-01 22:33:00,29.0,22.0,-100.00,WNW,300,13.0,22.0,74,-99.99,,,-99.99,,2013-01-02 05:33:00,
2013-01-01 22:42:00,29.0,22.0,-100.00,WNW,300,13.0,22.0,74,-99.99,,,-99.99,,2013-01-02 05:42:00,
2013-01-01 22:52:00,29.0,22.0,-100.00,WNW,300,13.0,22.0,74,-99.99,,,-99.99,,2013-01-02 05:52:00,
2013-01-01 23:32:00,28.0,21.0,-100.00,WNW,300,13.0,22.0,74,-99.99,,,-99.99,,2013-01-02 06:32:00,
2013-01-01 23:42:00,28.0,21.0,-100.00,WNW,300,13.0,22.0,74,-99.99,,,-99.99,,2013-01-02 06:42:00,
2013-01-01 23:52:00,28.0,21.0,-100.00,WNW,300,13.0,22.0,74,-99.99,,,-99.99,,2013-01-02 06:52:00,